Time;durP1;ratioP1;P1;durP2;ratioP2;P2;SDS_P1;SDS_P2;PMS_P1;PMS_P2;Temp;Humidity;BMP_temperature;BMP_pressure;BME280_temperature;BME280_humidity;BME280_pressure;Samples;Min_cycle;Max_cycle;Signal;HPM_P1;HPM_P2
2022/02/16 00:01:09;;;;;;;10.70;6.18;;;8.20;99.90;;;;;;4956368;28;20032;-84
2022/02/16 00:03:34;;;;;;;8.82;5.47;;;8.20;99.90;;;;;;4956237;28;20498;-84
2022/02/16 00:06:00;;;;;;;7.32;5.30;;;8.20;99.90;;;;;;4956084;28;20277;-83
2022/02/16 00:08:26;;;;;;;12.35;5.97;;;8.30;99.90;;;;;;4955820;29;20024;-83
2022/02/16 00:10:52;;;;;;;9.73;6.10;;;8.20;99.90;;;;;;4957385;28;20031;-84
2022/02/16 00:13:18;;;;;;;8.80;5.85;;;8.10;99.90;;;;;;4956333;28;20389;-84
2022/02/16 00:15:44;;;;;;;8.90;5.85;;;8.10;99.90;;;;;;4955701;28;20055;-84
2022/02/16 00:18:10;;;;;;;8.80;5.80;;;8.00;99.90;;;;;;4955904;28;20030;-84
2022/02/16 00:20:36;;;;;;;8.07;5.45;;;8.10;99.90;;;;;;4955780;28;20054;-84
2022/02/16 00:23:03;;;;;;;8.55;5.75;;;8.10;99.90;;;;;;4955540;28;20031;-84
2022/02/16 00:25:28;;;;;;;13.52;7.10;;;8.10;99.90;;;;;;4955649;28;20114;-84
2022/02/16 00:27:54;;;;;;;15.32;9.38;;;8.20;99.90;;;;;;4955745;28;20122;-84
2022/02/16 00:30:20;;;;;;;14.40;8.25;;;8.10;99.90;;;;;;4956149;28;20020;-84
2022/02/16 00:32:46;;;;;;;12.80;8.05;;;8.30;99.90;;;;;;4956062;28;20496;-84
2022/02/16 00:35:11;;;;;;;17.73;9.57;;;8.00;99.90;;;;;;4938191;29;20082;-84
2022/02/16 00:37:37;;;;;;;17.20;9.48;;;8.40;99.90;;;;;;4955604;28;20485;-84
2022/02/16 00:40:03;;;;;;;11.32;7.35;;;8.00;99.90;;;;;;4940903;29;20452;-84
2022/02/16 00:42:29;;;;;;;10.55;6.72;;;7.90;99.90;;;;;;4955504;28;20042;-84
2022/02/16 00:44:55;;;;;;;7.80;5.43;;;8.00;99.90;;;;;;4955789;28;20539;-84
2022/02/16 00:47:20;;;;;;;7.53;5.20;;;7.90;99.90;;;;;;4954648;29;20408;-84
2022/02/16 00:49:46;;;;;;;8.00;5.38;;;8.40;99.90;;;;;;4955390;28;20033;-84
2022/02/16 00:52:12;;;;;;;12.18;8.15;;;7.90;99.90;;;;;;4955433;28;20122;-84
2022/02/16 00:54:39;;;;;;;16.05;9.32;;;8.00;99.90;;;;;;4955255;28;20106;-84
2022/02/16 00:57:05;;;;;;;11.95;8.10;;;8.30;99.90;;;;;;4955265;28;20023;-85
2022/02/16 00:59:31;;;;;;;13.02;7.43;;;8.00;99.90;;;;;;4954748;28;20122;-84
2022/02/16 01:01:57;;;;;;;9.55;6.97;;;8.00;99.90;;;;;;4955670;28;20114;-84
2022/02/16 01:04:24;;;;;;;13.05;8.15;;;8.50;99.90;;;;;;4955694;28;20031;-84
2022/02/16 01:06:50;;;;;;;16.90;11.40;;;8.10;99.90;;;;;;4954799;28;20043;-84
2022/02/16 01:09:16;;;;;;;15.25;9.50;;;8.10;99.90;;;;;;4940211;29;20023;-84
2022/02/16 01:11:42;;;;;;;12.63;7.93;;;8.40;99.90;;;;;;4954994;28;20042;-83
2022/02/16 01:14:08;;;;;;;10.73;7.75;;;8.10;99.90;;;;;;4954268;29;20074;-84
2022/02/16 01:16:35;;;;;;;11.38;7.70;;;8.60;99.90;;;;;;4955455;28;20089;-84
2022/02/16 01:19:02;;;;;;;11.65;7.50;;;8.10;99.90;;;;;;4954845;28;20497;-83
2022/02/16 01:21:28;;;;;;;8.68;5.43;;;8.10;99.90;;;;;;4940066;29;20035;-84
2022/02/16 01:23:53;;;;;;;8.50;5.45;;;8.20;99.90;;;;;;4955195;28;20045;-84
2022/02/16 01:26:19;;;;;;;9.02;5.53;;;8.50;99.90;;;;;;4953791;29;20079;-84
2022/02/16 01:28:46;;;;;;;7.53;5.35;;;8.00;99.90;;;;;;4954994;28;20162;-84
2022/02/16 01:31:11;;;;;;;7.40;4.70;;;8.10;99.90;;;;;;4954685;28;20396;-83
2022/02/16 01:33:37;;;;;;;10.18;5.55;;;7.70;99.90;;;;;;4954972;28;20035;-84
2022/02/16 01:36:04;;;;;;;10.00;5.60;;;7.70;99.90;;;;;;4954776;28;20570;-84
2022/02/16 01:38:30;;;;;;;7.95;5.35;;;7.60;99.90;;;;;;4954175;28;20042;-84
2022/02/16 01:40:55;;;;;;;7.70;5.53;;;7.80;99.90;;;;;;4954327;28;20491;-84
2022/02/16 01:43:22;;;;;;;7.05;4.65;;;8.10;99.90;;;;;;4954509;28;20555;-84
2022/02/16 01:45:48;;;;;;;8.93;5.40;;;7.60;99.90;;;;;;4954778;28;20079;-84
2022/02/16 01:48:14;;;;;;;5.63;4.53;;;7.70;99.90;;;;;;4954391;28;20031;-84
2022/02/16 01:50:40;;;;;;;6.07;4.07;;;7.80;99.90;;;;;;4954627;28;20036;-84
2022/02/16 01:53:06;;;;;;;5.45;4.15;;;7.80;99.90;;;;;;4951431;29;20447;-84
2022/02/16 01:55:32;;;;;;;4.88;3.92;;;7.70;99.90;;;;;;4954027;28;20050;-84
2022/02/16 01:58:02;;;;;;;5.70;4.00;;;7.90;99.90;;;;;;4954259;28;20513;-84
2022/02/16 02:00:28;;;;;;;6.40;3.47;;;7.70;99.90;;;;;;4954182;28;20038;-83
2022/02/16 02:02:54;;;;;;;4.65;3.78;;;7.80;99.90;;;;;;4954745;28;20122;-84
2022/02/16 02:05:19;;;;;;;5.40;3.50;;;7.90;99.90;;;;;;4952722;29;20106;-84
2022/02/16 02:07:45;;;;;;;5.95;3.08;;;7.80;99.90;;;;;;4953875;28;20061;-84
2022/02/16 02:10:11;;;;;;;6.22;3.00;;;8.30;99.90;;;;;;4953926;28;20071;-84
2022/02/16 02:12:48;;;;;;;7.10;4.18;;;7.70;99.90;;;;;;4954066;28;20074;-84
2022/02/16 02:15:14;;;;;;;7.22;4.53;;;7.70;99.90;;;;;;4954567;28;20031;-83
2022/02/16 02:17:40;;;;;;;5.63;4.10;;;7.70;99.90;;;;;;4954184;28;20027;-84
2022/02/16 02:20:25;;;;;;;5.63;3.80;;;7.60;99.90;;;;;;4953167;28;20147;-84
2022/02/16 02:22:51;;;;;;;8.38;4.60;;;7.70;99.90;;;;;;4954435;28;20024;-83
2022/02/16 02:25:18;;;;;;;5.88;3.75;;;8.10;99.90;;;;;;4953919;28;20032;-84
2022/02/16 02:27:43;;;;;;;7.10;4.40;;;8.10;99.90;;;;;;4954078;28;20023;-84
2022/02/16 02:30:11;;;;;;;7.13;4.25;;;7.80;99.90;;;;;;4938405;29;20417;-83
2022/02/16 02:32:42;;;;;;;7.78;4.00;;;7.70;99.90;;;;;;4953478;28;20035;-84
2022/02/16 02:35:10;;;;;;;6.35;3.85;;;7.90;99.90;;;;;;4951464;29;20027;-83
2022/02/16 02:37:40;;;;;;;7.40;3.70;;;7.90;99.90;;;;;;4953979;28;20024;-84
2022/02/16 02:40:07;;;;;;;6.95;4.10;;;7.90;99.90;;;;;;4953464;28;20035;-84
2022/02/16 02:42:36;;;;;;;6.97;3.78;;;8.00;99.90;;;;;;4954337;28;20019;-84
2022/02/16 02:45:06;;;;;;;4.60;3.63;;;8.00;99.90;;;;;;4954370;28;20051;-84
2022/02/16 02:47:32;;;;;;;5.53;3.35;;;8.00;99.90;;;;;;4952987;28;20507;-84
2022/02/16 02:49:57;;;;;;;6.13;3.60;;;8.20;99.90;;;;;;4953791;28;20031;-84
2022/02/16 02:52:23;;;;;;;3.75;2.90;;;7.90;99.90;;;;;;4954094;28;20163;-83
2022/02/16 02:54:49;;;;;;;4.45;3.50;;;8.30;99.90;;;;;;4953392;28;20039;-84
2022/02/16 02:57:14;;;;;;;5.25;3.75;;;8.10;99.90;;;;;;4939073;28;20392;-83
2022/02/16 02:59:40;;;;;;;7.25;4.03;;;8.40;99.90;;;;;;4957087;28;20027;-83
2022/02/16 03:02:05;;;;;;;4.82;3.55;;;8.10;99.90;;;;;;4956418;28;20028;-84
2022/02/16 03:04:31;;;;;;;3.30;2.67;;;8.10;99.90;;;;;;4957261;28;20031;-84
2022/02/16 03:06:57;;;;;;;3.83;2.58;;;8.10;99.90;;;;;;4958354;28;20106;-84
2022/02/16 03:09:22;;;;;;;3.70;2.28;;;8.10;99.90;;;;;;4942425;29;20106;-84
2022/02/16 03:11:48;;;;;;;3.53;2.25;;;8.30;99.90;;;;;;4957877;28;20022;-84
2022/02/16 03:14:14;;;;;;;3.75;2.30;;;8.20;99.90;;;;;;4956696;29;20122;-84
2022/02/16 03:16:39;;;;;;;2.67;1.88;;;8.30;99.90;;;;;;4956922;28;20031;-84
2022/02/16 03:19:05;;;;;;;2.67;1.88;;;8.90;99.90;;;;;;4956769;28;20035;-84
2022/02/16 03:21:31;;;;;;;3.42;1.83;;;8.50;99.90;;;;;;4957075;28;20546;-84
2022/02/16 03:23:56;;;;;;;2.38;1.70;;;8.50;99.90;;;;;;4957287;28;20447;-84
2022/02/16 03:26:22;;;;;;;2.20;1.60;;;8.40;99.90;;;;;;4952151;29;20038;-84
2022/02/16 03:28:48;;;;;;;5.03;1.70;;;8.40;99.90;;;;;;4957361;28;20059;-84
2022/02/16 03:31:14;;;;;;;3.08;1.90;;;8.40;99.90;;;;;;4956904;28;20082;-84
2022/02/16 03:33:40;;;;;;;2.78;1.63;;;8.40;99.90;;;;;;4956453;28;20094;-84
2022/02/16 03:36:06;;;;;;;2.72;1.90;;;8.40;99.90;;;;;;4940306;29;20039;-84
2022/02/16 03:38:31;;;;;;;3.45;1.92;;;8.40;99.90;;;;;;4956342;28;20036;-84
2022/02/16 03:40:57;;;;;;;2.20;1.60;;;8.30;99.90;;;;;;4956830;28;20036;-83
2022/02/16 03:43:23;;;;;;;2.92;1.73;;;8.40;99.90;;;;;;4956734;28;20042;-84
2022/02/16 03:45:49;;;;;;;5.28;1.88;;;8.30;99.90;;;;;;4956878;28;20027;-84
2022/02/16 03:48:15;;;;;;;2.42;1.60;;;8.30;99.90;;;;;;4956373;28;20447;-84
2022/02/16 03:50:41;;;;;;;2.72;1.65;;;8.70;99.90;;;;;;4957027;28;20520;-83
2022/02/16 03:53:06;;;;;;;3.67;1.83;;;8.70;99.90;;;;;;4953355;29;20515;-84
2022/02/16 03:55:32;;;;;;;3.38;2.10;;;8.20;99.90;;;;;;4956439;28;20031;-84
2022/02/16 03:57:57;;;;;;;2.35;1.70;;;8.60;99.90;;;;;;4956744;28;20043;-84
2022/02/16 04:00:23;;;;;;;2.85;1.60;;;8.20;99.90;;;;;;4956568;28;20109;-84
2022/02/16 04:02:49;;;;;;;4.88;1.85;;;8.30;99.90;;;;;;4956610;28;22339;-84
2022/02/16 04:05:15;;;;;;;2.75;1.55;;;8.50;99.90;;;;;;4955434;29;20023;-84
2022/02/16 04:07:41;;;;;;;2.90;1.67;;;8.30;99.90;;;;;;4955850;28;20031;-84
2022/02/16 04:10:07;;;;;;;1.80;1.42;;;8.30;99.90;;;;;;4955278;28;20035;-83
2022/02/16 04:12:34;;;;;;;2.35;1.30;;;8.10;99.90;;;;;;4956381;28;20039;-84
2022/02/16 04:14:59;;;;;;;2.05;1.40;;;8.10;99.90;;;;;;4956498;28;20015;-84
2022/02/16 04:17:25;;;;;;;3.25;1.40;;;8.40;99.90;;;;;;4955767;29;20106;-84
2022/02/16 04:19:51;;;;;;;3.20;1.48;;;8.20;99.90;;;;;;4955933;28;20047;-85
2022/02/16 04:22:17;;;;;;;2.42;1.40;;;8.10;99.90;;;;;;4955712;28;20098;-83
2022/02/16 04:24:44;;;;;;;1.40;1.13;;;8.10;99.90;;;;;;4956243;28;20105;-84
2022/02/16 04:27:10;;;;;;;3.42;1.50;;;8.00;99.90;;;;;;4956219;28;20127;-84
2022/02/16 04:29:36;;;;;;;2.38;1.40;;;8.00;99.90;;;;;;4955484;28;20090;-84
2022/02/16 04:32:02;;;;;;;3.42;1.40;;;8.00;99.90;;;;;;4956010;28;20031;-84
2022/02/16 04:34:27;;;;;;;2.53;1.40;;;8.10;99.90;;;;;;4955254;28;20038;-84
2022/02/16 04:36:53;;;;;;;4.22;1.23;;;7.90;99.90;;;;;;4955970;28;20036;-84
2022/02/16 04:39:19;;;;;;;2.55;1.30;;;8.00;99.90;;;;;;4955719;28;20031;-84
2022/02/16 04:41:44;;;;;;;1.83;1.40;;;7.80;99.90;;;;;;4955921;28;20384;-84
2022/02/16 04:44:10;;;;;;;1.75;1.10;;;8.20;99.90;;;;;;4954875;29;20050;-84
2022/02/16 04:46:36;;;;;;;2.13;1.25;;;7.80;99.90;;;;;;4956230;28;20062;-84
2022/02/16 04:49:02;;;;;;;2.60;1.30;;;7.80;99.90;;;;;;4955196;28;20031;-84
2022/02/16 04:51:28;;;;;;;2.85;1.10;;;7.90;99.90;;;;;;4955608;28;20031;-84
2022/02/16 04:53:54;;;;;;;2.10;1.20;;;8.20;99.90;;;;;;4955379;28;20418;-84
2022/02/16 04:56:19;;;;;;;2.75;1.67;;;8.20;99.90;;;;;;4955203;29;20495;-83
2022/02/16 04:58:46;;;;;;;3.35;1.35;;;8.20;99.90;;;;;;4955607;28;20118;-84
2022/02/16 05:01:13;;;;;;;2.92;1.30;;;8.00;99.90;;;;;;4955227;28;20078;-84
2022/02/16 05:03:39;;;;;;;1.80;1.20;;;8.00;99.90;;;;;;4954994;28;20039;-84
2022/02/16 05:06:05;;;;;;;2.15;1.30;;;8.10;99.90;;;;;;4955213;28;20040;-84
2022/02/16 05:08:31;;;;;;;2.17;1.27;;;7.80;99.90;;;;;;4954543;28;20543;-84
2022/02/16 05:10:56;;;;;;;2.08;1.20;;;7.90;99.90;;;;;;4955543;28;20045;-84
2022/02/16 05:13:22;;;;;;;1.60;0.98;;;7.80;99.90;;;;;;4954790;28;20456;-83
2022/02/16 05:15:47;;;;;;;1.90;1.15;;;8.20;99.90;;;;;;4955694;28;20034;-84
2022/02/16 05:18:13;;;;;;;3.45;1.20;;;7.90;99.90;;;;;;4954739;28;20137;-84
2022/02/16 05:20:39;;;;;;;2.80;1.00;;;8.30;99.90;;;;;;4954498;28;20388;-84
2022/02/16 05:23:04;;;;;;;3.30;1.30;;;7.90;99.90;;;;;;4954485;28;20034;-84
2022/02/16 05:25:31;;;;;;;3.28;1.30;;;8.10;99.90;;;;;;4955294;28;20464;-84
2022/02/16 05:27:56;;;;;;;1.30;1.08;;;7.80;99.90;;;;;;4954629;28;20507;-84
2022/02/16 05:30:22;;;;;;;2.47;1.13;;;7.90;99.90;;;;;;4955012;28;20049;-84
2022/02/16 05:32:48;;;;;;;2.83;1.45;;;8.30;99.90;;;;;;4954616;28;20495;-84
2022/02/16 05:35:13;;;;;;;1.38;1.20;;;8.10;99.90;;;;;;4954037;29;20027;-84
2022/02/16 05:37:40;;;;;;;2.17;1.20;;;8.00;99.90;;;;;;4954687;28;20027;-84
2022/02/16 05:40:06;;;;;;;2.42;1.10;;;8.00;99.90;;;;;;4954767;28;20031;-84
2022/02/16 05:42:35;;;;;;;2.05;1.20;;;8.00;99.90;;;;;;4954966;28;20115;-84
2022/02/16 05:45:01;;;;;;;2.97;1.30;;;8.20;99.90;;;;;;4954428;28;20102;-84
2022/02/16 05:47:27;;;;;;;2.67;1.20;;;8.10;99.90;;;;;;4953468;29;20114;-82
2022/02/16 05:49:52;;;;;;;2.35;1.20;;;8.10;99.90;;;;;;4955028;28;20055;-84
2022/02/16 05:52:18;;;;;;;2.25;1.35;;;8.00;99.90;;;;;;4953460;28;20027;-85
2022/02/16 05:54:43;;;;;;;1.85;1.10;;;8.10;99.90;;;;;;4954513;28;20027;-84
2022/02/16 05:57:11;;;;;;;1.67;1.08;;;8.00;99.90;;;;;;4954394;28;20501;-85
2022/02/16 05:59:39;;;;;;;1.55;1.25;;;8.10;99.90;;;;;;4954122;28;20035;-85
2022/02/16 06:02:05;;;;;;;2.08;1.13;;;8.10;99.90;;;;;;4953680;28;20035;-85
2022/02/16 06:04:35;;;;;;;1.58;1.13;;;8.60;99.90;;;;;;4954345;28;20590;-85
2022/02/16 06:07:00;;;;;;;2.15;1.10;;;8.20;99.90;;;;;;4954265;28;20023;-85
2022/02/16 06:09:27;;;;;;;2.20;1.15;;;8.20;99.90;;;;;;4954458;28;20027;-84
2022/02/16 06:11:53;;;;;;;1.60;1.00;;;8.30;99.90;;;;;;4954188;28;20028;-85
2022/02/16 06:14:18;;;;;;;2.58;1.30;;;8.20;99.90;;;;;;4953836;29;20040;-84
2022/02/16 06:16:44;;;;;;;1.50;1.20;;;8.20;99.90;;;;;;4953748;28;20031;-84
2022/02/16 06:19:09;;;;;;;3.13;1.40;;;8.20;99.90;;;;;;4954820;28;20113;-84
2022/02/16 06:21:35;;;;;;;2.03;1.30;;;8.60;99.90;;;;;;4954282;28;20113;-85
2022/02/16 06:24:01;;;;;;;1.60;1.27;;;8.80;99.90;;;;;;4954013;28;20042;-84
2022/02/16 06:26:26;;;;;;;3.35;1.45;;;8.30;99.90;;;;;;4953279;29;20460;-84
2022/02/16 06:28:52;;;;;;;4.05;1.55;;;8.30;99.90;;;;;;4954383;28;20036;-85
2022/02/16 06:31:18;;;;;;;2.22;1.30;;;8.30;99.90;;;;;;4954047;28;20031;-83
2022/02/16 06:33:43;;;;;;;2.58;1.27;;;8.30;99.90;;;;;;4955854;28;20423;-84
2022/02/16 06:36:09;;;;;;;3.47;2.10;;;8.30;99.90;;;;;;4957994;28;20032;-84
2022/02/16 06:38:35;;;;;;;1.63;1.50;;;8.20;99.90;;;;;;4957360;28;20027;-84
2022/02/16 06:41:00;;;;;;;3.47;1.38;;;8.20;99.90;;;;;;4957633;28;20038;-85
2022/02/16 06:43:26;;;;;;;3.08;1.88;;;8.30;99.90;;;;;;4943364;29;20027;-84
2022/02/16 06:45:51;;;;;;;3.22;1.80;;;8.50;99.90;;;;;;4957318;28;20491;-85
2022/02/16 06:48:17;;;;;;;2.67;1.67;;;8.40;99.90;;;;;;4957849;28;20086;-85
2022/02/16 06:50:44;;;;;;;4.35;1.80;;;8.40;99.90;;;;;;4958008;28;20081;-84
2022/02/16 06:53:09;;;;;;;2.88;1.60;;;8.70;99.90;;;;;;4956653;29;20045;-84
2022/02/16 06:55:35;;;;;;;3.95;1.85;;;8.50;99.90;;;;;;4957171;28;20443;-85
2022/02/16 06:58:01;;;;;;;2.80;1.38;;;8.50;99.90;;;;;;4957817;28;20043;-84
2022/02/16 07:00:26;;;;;;;2.45;1.65;;;9.00;99.90;;;;;;4957241;28;20024;-84
2022/02/16 07:02:52;;;;;;;1.92;1.42;;;8.50;99.90;;;;;;4957525;28;20411;-84
2022/02/16 07:05:18;;;;;;;3.13;1.50;;;8.50;99.90;;;;;;4956701;29;20042;-84
2022/02/16 07:07:44;;;;;;;2.63;1.60;;;8.80;99.90;;;;;;4957946;28;20031;-84
2022/02/16 07:10:10;;;;;;;4.07;1.80;;;8.40;99.90;;;;;;4957089;28;20502;-84
2022/02/16 07:12:38;;;;;;;3.20;2.22;;;8.50;99.90;;;;;;4957112;28;20046;-84
2022/02/16 07:15:11;;;;;;;3.55;1.70;;;8.50;99.90;;;;;;4957026;28;20027;-85
2022/02/16 07:17:39;;;;;;;5.30;1.50;;;8.50;99.90;;;;;;4957174;28;20375;-84
2022/02/16 07:20:09;;;;;;;4.40;1.40;;;8.60;99.90;;;;;;4956243;28;20530;-84
2022/02/16 07:22:43;;;;;;;2.90;1.60;;;8.60;99.90;;;;;;4956713;28;20035;-84
2022/02/16 07:25:09;;;;;;;4.07;1.75;;;8.60;99.90;;;;;;4957306;28;20027;-84
2022/02/16 07:27:34;;;;;;;5.45;2.05;;;8.60;99.90;;;;;;4942705;29;20455;-84
2022/02/16 07:30:01;;;;;;;8.82;2.00;;;8.70;99.90;;;;;;4956594;28;20022;-84
2022/02/16 07:32:27;;;;;;;8.05;2.10;;;8.80;99.90;;;;;;4956211;29;20031;-84
2022/02/16 07:34:53;;;;;;;5.35;2.40;;;9.10;99.90;;;;;;4957325;28;20416;-85
2022/02/16 07:37:18;;;;;;;4.50;2.05;;;9.20;99.90;;;;;;4956451;28;20567;-84
2022/02/16 07:39:44;;;;;;;4.30;1.52;;;8.70;99.90;;;;;;4956830;28;20023;-84
2022/02/16 07:42:10;;;;;;;5.50;1.50;;;9.10;99.90;;;;;;4957139;28;20033;-84
2022/02/16 07:44:35;;;;;;;5.35;2.30;;;8.50;99.90;;;;;;4956081;28;20051;-95
2022/02/16 07:47:02;;;;;;;4.75;1.95;;;8.60;99.90;;;;;;4959990;28;20495;-93
2022/02/16 07:49:28;;;;;;;6.15;1.67;;;8.80;99.90;;;;;;4960944;28;20031;-94
2022/02/16 07:51:53;;;;;;;3.38;1.90;;;9.20;99.90;;;;;;4947242;29;20042;-93
2022/02/16 07:54:19;;;;;;;4.70;2.60;;;9.20;99.90;;;;;;4943973;29;20035;-90
2022/02/16 07:56:45;;;;;;;2.67;1.63;;;9.10;99.90;;;;;;4957347;28;20498;-91
2022/02/16 07:59:11;;;;;;;5.10;1.90;;;9.00;99.90;;;;;;4956024;29;20219;-90
2022/02/16 08:01:36;;;;;;;5.47;2.17;;;9.30;99.90;;;;;;4959351;28;20034;-90
2022/02/16 08:04:17;;;;;;;6.25;2.35;;;9.20;99.90;;;;;;4941935;29;20463;-92
2022/02/16 08:06:44;;;;;;;2.78;1.98;;;8.80;99.90;;;;;;4957293;28;20037;-91
2022/02/16 08:09:11;;;;;;;5.07;2.00;;;8.90;99.90;;;;;;4957325;28;20027;-91
2022/02/16 08:11:41;;;;;;;3.40;1.85;;;8.80;99.90;;;;;;4956548;28;20627;-91
2022/02/16 08:14:08;;;;;;;5.28;2.50;;;8.80;99.90;;;;;;4938087;29;20043;-90
2022/02/16 08:16:35;;;;;;;6.22;2.28;;;8.80;99.90;;;;;;4958226;28;20035;-91
2022/02/16 08:19:03;;;;;;;4.32;1.75;;;8.80;99.90;;;;;;4956584;28;20032;-91
2022/02/16 08:21:28;;;;;;;3.25;2.10;;;8.90;99.90;;;;;;4956497;28;20066;-91
2022/02/16 08:23:54;;;;;;;4.20;1.95;;;8.70;99.90;;;;;;4956527;28;20102;-91
2022/02/16 08:26:20;;;;;;;7.55;2.17;;;8.70;99.90;;;;;;4956168;29;20499;-91
2022/02/16 08:28:45;;;;;;;3.90;1.80;;;8.80;99.90;;;;;;4956372;28;20027;-91
2022/02/16 08:31:11;;;;;;;5.05;1.80;;;8.90;99.90;;;;;;4955942;28;20039;-91
2022/02/16 08:33:37;;;;;;;5.25;1.63;;;8.90;99.90;;;;;;4963045;28;20088;-91
2022/02/16 08:36:03;;;;;;;3.63;1.45;;;8.80;99.90;;;;;;4958910;28;20038;-91
2022/02/16 08:38:29;;;;;;;2.00;1.30;;;8.90;99.90;;;;;;4938450;28;20024;-90
2022/02/16 08:40:56;;;;;;;2.28;1.20;;;9.00;99.90;;;;;;4956569;28;20027;-90
2022/02/16 08:43:21;;;;;;;4.30;1.88;;;8.80;99.90;;;;;;4956457;28;20036;-91
2022/02/16 08:45:47;;;;;;;3.05;1.90;;;9.10;99.90;;;;;;4965500;28;20034;-91
2022/02/16 08:48:13;;;;;;;11.25;8.13;;;9.20;99.90;;;;;;4941771;28;20089;-91
2022/02/16 08:50:38;;;;;;;6.68;3.45;;;9.20;99.90;;;;;;4938829;28;20027;-91
2022/02/16 08:53:05;;;;;;;7.15;2.13;;;8.90;99.90;;;;;;4955745;28;20035;-91
2022/02/16 08:55:31;;;;;;;4.15;2.05;;;8.90;99.90;;;;;;4955584;28;20039;-91
2022/02/16 08:57:57;;;;;;;3.38;1.58;;;8.90;99.90;;;;;;4957170;28;20457;-91
2022/02/16 09:00:23;;;;;;;3.25;1.38;;;9.00;99.90;;;;;;4941974;29;20446;-91
2022/02/16 09:02:49;;;;;;;3.40;1.83;;;8.90;99.90;;;;;;4957095;28;20040;-91
2022/02/16 09:05:15;;;;;;;3.58;1.80;;;9.10;99.90;;;;;;4956825;28;20109;-91
2022/02/16 09:07:41;;;;;;;3.08;1.55;;;9.30;99.90;;;;;;4956227;28;20046;-90
2022/02/16 09:10:09;;;;;;;2.55;1.42;;;9.00;99.90;;;;;;4955311;28;20069;-91
2022/02/16 09:12:35;;;;;;;1.92;1.05;;;9.10;99.90;;;;;;4956826;28;20031;-91
2022/02/16 09:15:02;;;;;;;2.38;0.98;;;9.40;99.90;;;;;;4957884;28;20045;-91
2022/02/16 09:17:28;;;;;;;1.75;1.10;;;9.00;99.90;;;;;;4955017;29;20023;-91
2022/02/16 09:19:54;;;;;;;2.47;1.17;;;9.10;99.90;;;;;;4956501;28;20126;-90
2022/02/16 09:22:22;;;;;;;4.13;1.45;;;9.20;99.90;;;;;;4956089;28;20379;-91
2022/02/16 09:24:48;;;;;;;1.85;1.20;;;9.00;99.90;;;;;;4957771;28;20054;-90
2022/02/16 09:27:14;;;;;;;1.92;1.20;;;8.90;99.90;;;;;;4942013;28;20026;-91
2022/02/16 09:29:41;;;;;;;1.88;1.25;;;8.90;99.90;;;;;;4956074;28;20032;-91
2022/02/16 09:32:07;;;;;;;2.65;1.10;;;9.00;99.90;;;;;;4955324;28;20178;-91
2022/02/16 09:34:32;;;;;;;3.22;1.20;;;8.90;99.90;;;;;;4950493;29;20574;-91
2022/02/16 09:36:58;;;;;;;3.75;1.10;;;9.20;99.90;;;;;;4948241;29;20118;-91
2022/02/16 09:39:25;;;;;;;2.63;1.25;;;9.00;99.90;;;;;;4956335;28;20041;-91
2022/02/16 09:41:50;;;;;;;3.45;1.23;;;8.70;99.90;;;;;;4956144;28;20110;-91
2022/02/16 09:44:28;;;;;;;2.13;1.08;;;9.10;99.90;;;;;;4938563;29;20439;-91
2022/02/16 09:46:54;;;;;;;1.65;0.75;;;8.90;99.90;;;;;;4937730;29;20091;-91
2022/02/16 09:49:19;;;;;;;1.67;0.70;;;9.20;99.90;;;;;;4941352;29;20039;-91
2022/02/16 09:51:46;;;;;;;2.78;1.02;;;9.00;99.90;;;;;;4955282;28;20109;-91
2022/02/16 09:54:12;;;;;;;1.02;0.70;;;8.90;99.90;;;;;;4956293;28;20042;-91
2022/02/16 09:56:43;;;;;;;1.60;1.10;;;9.00;99.90;;;;;;4955007;28;20106;-91
2022/02/16 09:59:09;;;;;;;3.63;1.13;;;9.30;99.90;;;;;;4935529;29;20031;-91
2022/02/16 10:01:52;;;;;;;1.70;1.13;;;8.80;99.90;;;;;;4945137;29;20035;-91
2022/02/16 10:04:18;;;;;;;2.35;1.25;;;8.80;99.90;;;;;;4940723;29;20117;-91
2022/02/16 10:06:48;;;;;;;3.42;1.30;;;8.70;99.90;;;;;;4940484;28;20531;-91
2022/02/16 10:09:29;;;;;;;2.63;1.10;;;8.80;99.90;;;;;;4956975;28;20031;-91
2022/02/16 10:12:00;;;;;;;2.45;1.33;;;8.80;99.90;;;;;;4955947;28;21150;-91
2022/02/16 10:14:32;;;;;;;1.70;1.10;;;8.80;99.90;;;;;;4933819;29;20380;-91
2022/02/16 10:17:02;;;;;;;2.05;1.00;;;8.90;99.90;;;;;;4937731;29;20031;-91
2022/02/16 10:19:49;;;;;;;7.05;1.50;;;8.80;99.90;;;;;;4954819;28;20057;-91
2022/02/16 10:22:15;;;;;;;3.92;0.90;;;8.70;99.90;;;;;;4956823;28;20123;-90
2022/02/16 10:24:43;;;;;;;2.45;1.10;;;9.00;99.90;;;;;;4940612;29;20403;-91
2022/02/16 10:27:09;;;;;;;2.50;1.02;;;8.70;99.90;;;;;;4957479;28;20028;-91
2022/02/16 10:29:35;;;;;;;2.65;1.00;;;8.90;99.90;;;;;;4954086;28;20090;-91
2022/02/16 10:32:03;;;;;;;3.80;1.10;;;9.30;99.90;;;;;;4956843;28;20035;-90
2022/02/16 10:34:56;;;;;;;2.05;1.23;;;9.00;99.90;;;;;;4940090;29;20067;-91
2022/02/16 10:37:39;;;;;;;2.45;1.10;;;9.10;99.90;;;;;;4954188;29;20436;-91
2022/02/16 10:40:11;;;;;;;1.52;0.70;;;9.10;99.90;;;;;;4954788;28;20090;-91
2022/02/16 10:42:53;;;;;;;2.97;1.42;;;8.90;99.90;;;;;;4956189;28;20488;-91
2022/02/16 10:45:21;;;;;;;2.17;1.10;;;9.00;99.90;;;;;;4955336;28;20027;-91
2022/02/16 10:47:52;;;;;;;3.47;1.48;;;9.10;99.90;;;;;;4955253;28;20039;-91
2022/02/16 10:50:19;;;;;;;2.10;1.25;;;9.10;99.90;;;;;;4954620;29;20019;-91
2022/02/16 10:52:53;;;;;;;3.67;1.40;;;9.10;99.90;;;;;;4954110;28;20118;-91
2022/02/16 10:55:33;;;;;;;2.58;1.30;;;9.00;99.90;;;;;;4954749;28;20026;-91
2022/02/16 10:57:59;;;;;;;1.70;1.00;;;8.90;99.90;;;;;;4940985;29;20405;-91
2022/02/16 11:00:30;;;;;;;1.75;1.08;;;9.00;99.90;;;;;;4940201;29;20031;-91
2022/02/16 11:02:56;;;;;;;1.98;0.90;;;8.90;99.90;;;;;;4955902;28;20407;-91
2022/02/16 11:05:23;;;;;;;1.60;1.08;;;8.80;99.90;;;;;;4954562;28;20028;-91
2022/02/16 11:07:50;;;;;;;1.63;1.10;;;8.90;99.90;;;;;;4955860;28;20028;-91
2022/02/16 11:10:19;;;;;;;1.50;1.13;;;9.10;99.90;;;;;;4940469;29;20050;-91
2022/02/16 11:12:45;;;;;;;1.00;0.75;;;8.90;99.90;;;;;;4954558;28;20027;-91
2022/02/16 11:15:11;;;;;;;1.90;0.65;;;9.20;99.90;;;;;;4954686;28;20127;-91
2022/02/16 11:17:37;;;;;;;2.47;0.75;;;9.00;99.90;;;;;;4953992;28;20048;-91
2022/02/16 11:20:19;;;;;;;0.98;0.80;;;8.80;99.90;;;;;;4956860;28;20079;-90
2022/02/16 11:22:49;;;;;;;1.00;0.90;;;8.90;99.90;;;;;;4942996;29;20118;-90
2022/02/16 11:25:35;;;;;;;1.30;0.98;;;8.90;99.90;;;;;;4957640;28;20034;-90
2022/02/16 11:28:03;;;;;;;0.98;0.88;;;8.90;99.90;;;;;;4943463;29;20027;-90
2022/02/16 11:30:44;;;;;;;2.17;1.20;;;9.20;99.90;;;;;;4957426;28;20542;-90
2022/02/16 11:33:24;;;;;;;0.82;0.70;;;9.10;99.90;;;;;;4928337;29;20035;-91
2022/02/16 11:35:57;;;;;;;0.90;0.80;;;9.30;99.90;;;;;;4957525;28;20503;-91
2022/02/16 11:38:38;;;;;;;0.82;0.80;;;8.90;99.90;;;;;;4956680;29;20023;-90
2022/02/16 11:41:18;;;;;;;0.68;0.60;;;9.00;99.90;;;;;;4958326;28;20042;-90
2022/02/16 11:44:01;;;;;;;1.20;0.70;;;9.20;99.90;;;;;;4942652;29;20126;-90
2022/02/16 11:46:54;;;;;;;1.73;0.85;;;9.10;99.90;;;;;;4947378;29;20046;-90
2022/02/16 11:49:29;;;;;;;1.50;0.85;;;9.10;99.90;;;;;;4942923;29;20031;-90
2022/02/16 11:51:56;;;;;;;1.30;0.80;;;9.10;99.90;;;;;;4957235;28;20049;-90
2022/02/16 11:54:44;;;;;;;0.95;0.80;;;9.30;1.00;;;;;;4959529;28;20039;-90
2022/02/16 11:57:29;;;;;;;1.70;0.80;;;9.20;99.90;;;;;;4943508;28;20447;-89
2022/02/16 11:59:59;;;;;;;1.17;0.80;;;9.20;99.90;;;;;;4956939;28;20042;-89
2022/02/16 12:02:25;;;;;;;1.00;0.90;;;9.20;99.90;;;;;;4952207;29;20042;-90
2022/02/16 12:04:56;;;;;;;0.60;0.60;;;9.30;99.90;;;;;;4957023;28;20046;-89
2022/02/16 12:07:27;;;;;;;0.85;0.80;;;9.30;99.90;;;;;;4957249;28;20392;-90
2022/02/16 12:10:18;;;;;;;0.80;0.80;;;9.30;99.90;;;;;;4941424;29;20030;-90
2022/02/16 12:12:46;;;;;;;1.02;0.80;;;9.30;99.90;;;;;;4941794;29;20035;-89
2022/02/16 12:15:13;;;;;;;0.98;0.70;;;9.30;99.90;;;;;;4956666;28;20413;-90
2022/02/16 12:17:39;;;;;;;0.80;0.80;;;9.50;99.90;;;;;;4956328;28;20037;-90
2022/02/16 12:20:06;;;;;;;1.30;0.80;;;9.30;99.90;;;;;;4956021;28;20074;-91
2022/02/16 12:22:38;;;;;;;0.73;0.63;;;9.30;99.90;;;;;;4956795;28;20042;-90
2022/02/16 12:25:08;;;;;;;2.50;1.08;;;9.60;99.90;;;;;;4959807;28;20043;-91
2022/02/16 12:27:34;;;;;;;1.05;0.90;;;9.50;99.90;;;;;;4957158;28;20027;-91
2022/02/16 12:30:02;;;;;;;0.60;0.60;;;9.50;99.90;;;;;;4941988;28;20023;-90
2022/02/16 12:32:27;;;;;;;0.73;0.70;;;9.60;99.90;;;;;;4941957;29;20023;-90
2022/02/16 12:34:53;;;;;;;1.27;0.95;;;9.80;99.90;;;;;;4957427;28;20583;-91
2022/02/16 12:37:21;;;;;;;1.05;0.70;;;9.70;99.90;;;;;;4957268;28;20019;-91
2022/02/16 12:40:04;;;;;;;1.67;0.82;;;9.70;99.90;;;;;;4956627;28;20463;-91
2022/02/16 12:42:33;;;;;;;2.15;0.60;;;9.80;99.90;;;;;;4942066;29;20525;-90
2022/02/16 12:44:59;;;;;;;0.80;0.80;;;9.90;99.90;;;;;;4943934;28;20560;-91
2022/02/16 12:47:26;;;;;;;2.30;0.93;;;9.80;99.90;;;;;;4955706;29;20110;-91
2022/02/16 12:49:52;;;;;;;1.48;1.30;;;9.80;99.90;;;;;;4956206;28;20035;-90
2022/02/16 12:52:19;;;;;;;1.10;0.88;;;9.80;99.90;;;;;;4956413;28;20448;-91
2022/02/16 12:54:45;;;;;;;1.25;1.00;;;10.00;99.90;;;;;;4956626;28;20061;-91
2022/02/16 12:57:13;;;;;;;1.33;1.00;;;10.10;99.90;;;;;;4955923;28;20472;-91